Time;durP1;ratioP1;P1;durP2;ratioP2;P2;SDS_P1;SDS_P2;PMS_P1;PMS_P2;Temp;Humidity;BMP_temperature;BMP_pressure;BME280_temperature;BME280_humidity;BME280_pressure;Samples;Min_cycle;Max_cycle;Signal;HPM_P1;HPM_P2
2021/04/24 00:01:31;;;;;;;5.55;2.45;;;;;12.10;102741.00;;;;5074799;28;20771;-76
2021/04/24 00:03:58;;;;;;;4.50;2.70;;;;;12.10;102752.00;;;;5070524;28;20218;-76
2021/04/24 00:06:26;;;;;;;5.10;3.13;;;;;12.10;102745.00;;;;5075948;28;20214;-76
2021/04/24 00:08:54;;;;;;;3.15;2.00;;;;;12.00;102754.00;;;;5071885;28;20218;-76
2021/04/24 00:11:22;;;;;;;7.88;3.05;;;;;12.00;102751.00;;;;5082395;28;20260;-76
2021/04/24 00:13:49;;;;;;;6.20;2.35;;;;;12.00;102747.00;;;;5090727;28;20202;-76
2021/04/24 00:16:16;;;;;;;4.13;2.35;;;;;12.00;102743.00;;;;5088385;28;20195;-76
2021/04/24 00:18:43;;;;;;;2.97;2.08;;;;;11.90;102748.00;;;;5089831;28;20207;-76
2021/04/24 00:21:10;;;;;;;4.80;2.28;;;;;11.90;102739.00;;;;5089183;28;20201;-76
2021/04/24 00:23:37;;;;;;;4.72;2.58;;;;;11.90;102738.00;;;;5088496;28;20541;-76
2021/04/24 00:26:05;;;;;;;4.40;2.65;;;;;11.80;102739.00;;;;5084962;28;20187;-76
2021/04/24 00:28:31;;;;;;;6.47;2.65;;;;;11.80;102736.00;;;;5089798;28;20249;-76
2021/04/24 00:30:58;;;;;;;3.97;2.40;;;;;11.80;102742.00;;;;5085369;28;20599;-76
2021/04/24 00:33:25;;;;;;;6.85;3.10;;;;;11.80;102732.00;;;;5085860;28;20686;-76
2021/04/24 00:35:52;;;;;;;5.07;2.50;;;;;11.70;102737.00;;;;5069995;28;20203;-76
2021/04/24 00:38:19;;;;;;;5.28;2.63;;;;;11.70;102736.00;;;;5088243;28;20202;-76
2021/04/24 00:40:46;;;;;;;7.53;3.25;;;;;11.70;102725.00;;;;5090059;28;20190;-76
2021/04/24 00:43:15;;;;;;;5.72;2.92;;;;;11.70;102725.00;;;;5089215;28;20194;-76
2021/04/24 00:45:41;;;;;;;4.38;2.38;;;;;11.70;102723.00;;;;5090642;28;20628;-76
2021/04/24 00:48:08;;;;;;;4.68;2.63;;;;;11.60;102721.00;;;;5089146;28;20221;-76
2021/04/24 00:50:38;;;;;;;5.30;2.85;;;;;11.60;102723.00;;;;5089173;28;20226;-76
2021/04/24 00:53:06;;;;;;;6.03;3.03;;;;;11.60;102724.00;;;;5089257;28;20202;-76
2021/04/24 00:55:36;;;;;;;4.95;2.38;;;;;11.60;102724.00;;;;5088141;28;20198;-76
2021/04/24 00:58:04;;;;;;;6.38;2.63;;;;;11.50;102721.00;;;;5087977;28;20200;-76
2021/04/24 01:00:32;;;;;;;3.95;2.25;;;;;11.50;102722.00;;;;5070271;28;20218;-76
2021/04/24 01:02:59;;;;;;;5.63;2.80;;;;;11.50;102720.00;;;;5068261;28;20584;-76
2021/04/24 01:05:29;;;;;;;4.55;2.60;;;;;11.40;102711.00;;;;5069524;28;20206;-77
2021/04/24 01:07:55;;;;;;;3.67;2.25;;;;;11.50;102717.00;;;;5075720;28;20275;-76
2021/04/24 01:10:23;;;;;;;5.72;2.63;;;;;11.40;102714.00;;;;5088171;28;20210;-77
2021/04/24 01:12:50;;;;;;;5.00;2.65;;;;;11.40;102712.00;;;;5089067;28;20209;-77
2021/04/24 01:15:19;;;;;;;5.38;3.17;;;;;11.40;102719.00;;;;5087231;28;20208;-77
2021/04/24 01:17:47;;;;;;;4.35;2.72;;;;;11.40;102723.00;;;;5083697;28;20580;-77
2021/04/24 01:20:15;;;;;;;6.40;3.22;;;;;11.30;102721.00;;;;5082507;28;20194;-77
2021/04/24 01:22:44;;;;;;;5.65;2.92;;;;;11.30;102710.00;;;;5082962;28;20199;-76
2021/04/24 01:25:13;;;;;;;5.43;2.72;;;;;11.30;102717.00;;;;5088347;28;20194;-76
2021/04/24 01:27:41;;;;;;;4.90;2.90;;;;;11.30;102713.00;;;;5071735;28;20202;-77
2021/04/24 01:30:11;;;;;;;6.57;3.03;;;;;11.20;102708.00;;;;5068126;28;20190;-77
2021/04/24 01:32:38;;;;;;;5.97;3.13;;;;;11.20;102710.00;;;;5087279;28;20202;-76
2021/04/24 01:35:07;;;;;;;3.88;2.33;;;;;11.20;102714.00;;;;5078816;28;20653;-77
2021/04/24 01:37:34;;;;;;;4.03;2.45;;;;;11.20;102713.00;;;;5089020;28;20194;-76
2021/04/24 01:40:01;;;;;;;7.28;3.08;;;;;11.20;102709.00;;;;5089001;28;20680;-77
2021/04/24 01:42:28;;;;;;;5.75;3.05;;;;;11.20;102712.00;;;;5088115;28;20198;-77
2021/04/24 01:44:55;;;;;;;4.53;2.38;;;;;11.20;102709.00;;;;5088897;28;20240;-76
2021/04/24 01:47:22;;;;;;;5.30;2.58;;;;;11.20;102714.00;;;;5087014;28;20206;-77
2021/04/24 01:49:48;;;;;;;7.93;3.38;;;;;11.10;102706.00;;;;5071194;28;20226;-77
2021/04/24 01:52:15;;;;;;;5.57;3.38;;;;;11.10;102704.00;;;;5073489;28;20726;-77
2021/04/24 01:54:42;;;;;;;7.18;3.03;;;;;11.10;102700.00;;;;5088497;28;20213;-77
2021/04/24 01:57:10;;;;;;;6.55;3.22;;;;;11.10;102702.00;;;;5087414;28;20194;-76
2021/04/24 01:59:37;;;;;;;6.85;3.67;;;;;11.10;102701.00;;;;5083545;28;20190;-76
2021/04/24 02:02:04;;;;;;;4.20;2.53;;;;;11.10;102701.00;;;;5084256;28;20190;-76
2021/04/24 02:04:31;;;;;;;4.82;2.83;;;;;11.10;102698.00;;;;5087621;28;20225;-76
2021/04/24 02:06:58;;;;;;;3.78;2.17;;;;;11.10;102706.00;;;;5088525;28;20206;-76
2021/04/24 02:09:25;;;;;;;5.72;2.85;;;;;11.00;102698.00;;;;5085232;28;20249;-76
2021/04/24 02:12:00;;;;;;;3.88;2.40;;;;;11.00;102698.00;;;;5077219;28;20627;-77
2021/04/24 02:14:28;;;;;;;5.30;2.65;;;;;11.00;102698.00;;;;5089524;28;20206;-76
2021/04/24 02:16:55;;;;;;;7.13;3.38;;;;;11.00;102703.00;;;;5077633;28;20203;-77
2021/04/24 02:19:22;;;;;;;8.07;3.53;;;;;10.90;102702.00;;;;5072724;28;20284;-76
2021/04/24 02:21:48;;;;;;;4.90;2.90;;;;;11.00;102708.00;;;;5076904;28;20236;-76
2021/04/24 02:24:15;;;;;;;7.10;3.10;;;;;10.90;102708.00;;;;5087322;28;20676;-76
2021/04/24 02:26:42;;;;;;;5.25;3.30;;;;;10.90;102699.00;;;;5086746;28;20194;-76
2021/04/24 02:29:09;;;;;;;6.80;2.80;;;;;10.90;102702.00;;;;5078364;28;20231;-76
2021/04/24 02:31:36;;;;;;;5.38;2.97;;;;;10.90;102703.00;;;;5067587;28;20190;-75
2021/04/24 02:34:04;;;;;;;5.47;3.13;;;;;10.90;102703.00;;;;5067193;28;20709;-76
2021/04/24 02:36:30;;;;;;;4.55;2.42;;;;;10.90;102702.00;;;;5069007;28;20215;-76
2021/04/24 02:38:57;;;;;;;5.70;2.90;;;;;10.90;102703.00;;;;5086959;28;20198;-76
2021/04/24 02:41:24;;;;;;;7.32;2.97;;;;;10.90;102704.00;;;;5087351;28;20209;-76
2021/04/24 02:43:51;;;;;;;5.70;3.10;;;;;10.80;102698.00;;;;5088668;28;20217;-76
2021/04/24 02:46:17;;;;;;;7.88;2.50;;;;;10.90;102700.00;;;;5091975;28;20702;-76
2021/04/24 02:48:45;;;;;;;5.07;2.70;;;;;10.80;102696.00;;;;5092163;28;20218;-76
2021/04/24 02:51:12;;;;;;;6.22;2.85;;;;;10.80;102705.00;;;;5092036;28;20230;-76
2021/04/24 02:53:38;;;;;;;5.80;2.65;;;;;10.80;102697.00;;;;5092361;28;20670;-76
2021/04/24 02:56:05;;;;;;;6.20;3.60;;;;;10.80;102706.00;;;;5089593;28;20280;-76
2021/04/24 02:58:32;;;;;;;5.70;2.90;;;;;10.80;102702.00;;;;5087165;28;20194;-76
2021/04/24 03:00:58;;;;;;;4.88;2.72;;;;;10.80;102704.00;;;;5086348;28;20210;-76
2021/04/24 03:03:25;;;;;;;7.85;3.28;;;;;10.80;102705.00;;;;5072100;28;20219;-76
2021/04/24 03:05:54;;;;;;;5.45;2.92;;;;;10.80;102709.00;;;;5071943;28;20573;-76
2021/04/24 03:08:21;;;;;;;4.72;2.72;;;;;10.80;102706.00;;;;5081993;28;20218;-76
2021/04/24 03:10:48;;;;;;;4.13;2.28;;;;;10.80;102706.00;;;;5090572;28;20203;-76
2021/04/24 03:13:15;;;;;;;6.78;2.80;;;;;10.80;102702.00;;;;5091037;28;20198;-76
2021/04/24 03:15:41;;;;;;;4.65;2.47;;;;;10.80;102701.00;;;;5091383;28;20194;-76
2021/04/24 03:18:09;;;;;;;6.80;3.15;;;;;10.70;102697.00;;;;5082790;28;20206;-76
2021/04/24 03:20:35;;;;;;;4.63;2.70;;;;;10.70;102702.00;;;;5072412;28;20195;-77
2021/04/24 03:23:04;;;;;;;5.22;3.08;;;;;10.70;102702.00;;;;5081498;28;20194;-77
2021/04/24 03:25:31;;;;;;;8.48;2.95;;;;;10.70;102702.00;;;;5091210;28;20692;-77
2021/04/24 03:27:57;;;;;;;6.28;2.47;;;;;10.70;102697.00;;;;5090448;28;20233;-76
2021/04/24 03:30:25;;;;;;;3.88;2.40;;;;;10.70;102703.00;;;;5090978;28;20598;-76
2021/04/24 03:32:51;;;;;;;5.20;2.40;;;;;10.70;102702.00;;;;5088839;28;20660;-76
2021/04/24 03:35:18;;;;;;;6.40;3.25;;;;;10.70;102707.00;;;;5086347;28;20705;-76
2021/04/24 03:37:45;;;;;;;8.23;3.10;;;;;10.70;102707.00;;;;5089013;28;20195;-76
2021/04/24 03:40:14;;;;;;;4.38;2.47;;;;;10.60;102706.00;;;;5087403;28;20208;-76
2021/04/24 03:42:40;;;;;;;3.95;2.38;;;;;10.60;102699.00;;;;5091340;28;20187;-77
2021/04/24 03:45:18;;;;;;;5.63;3.00;;;;;10.60;102711.00;;;;5090491;28;20675;-76
2021/04/24 03:47:46;;;;;;;4.78;2.83;;;;;10.60;102700.00;;;;5090271;28;20213;-76
2021/04/24 03:50:13;;;;;;;7.13;3.15;;;;;10.60;102707.00;;;;5090644;28;20213;-76
2021/04/24 03:52:40;;;;;;;4.47;2.53;;;;;10.60;102703.00;;;;5090919;28;20190;-76
2021/04/24 03:55:08;;;;;;;5.72;3.17;;;;;10.60;102709.00;;;;5088993;28;20202;-77
2021/04/24 03:57:36;;;;;;;5.22;2.95;;;;;10.50;102711.00;;;;5090218;28;20660;-77
2021/04/24 04:00:04;;;;;;;5.72;3.05;;;;;10.50;102704.00;;;;5071561;28;20203;-76
2021/04/24 04:02:45;;;;;;;5.00;3.00;;;;;10.50;102703.00;;;;5077852;28;20191;-77
2021/04/24 04:05:13;;;;;;;4.30;2.58;;;;;10.50;102703.00;;;;5079792;28;20256;-77
2021/04/24 04:07:40;;;;;;;4.38;2.35;;;;;10.50;102699.00;;;;5089590;28;20323;-76
2021/04/24 04:10:07;;;;;;;6.90;3.15;;;;;10.50;102703.00;;;;5074520;28;20190;-77
2021/04/24 04:12:35;;;;;;;6.90;3.20;;;;;10.50;102705.00;;;;5080864;28;20207;-76
2021/04/24 04:15:05;;;;;;;5.68;3.13;;;;;10.50;102700.00;;;;5089574;28;20206;-76
2021/04/24 04:17:31;;;;;;;5.60;2.92;;;;;10.50;102707.00;;;;5071736;28;20253;-77
2021/04/24 04:19:58;;;;;;;6.00;2.97;;;;;10.50;102705.00;;;;5079211;28;20191;-77
2021/04/24 04:22:25;;;;;;;6.40;3.22;;;;;10.40;102705.00;;;;5082957;28;20198;-77
2021/04/24 04:24:52;;;;;;;6.35;3.75;;;;;10.40;102708.00;;;;5080897;28;20195;-76
2021/04/24 04:27:19;;;;;;;4.45;2.63;;;;;10.40;102716.00;;;;5089767;28;20202;-76
2021/04/24 04:29:46;;;;;;;5.85;3.80;;;;;10.40;102703.00;;;;5090697;28;20218;-76
2021/04/24 04:32:13;;;;;;;6.20;2.83;;;;;10.40;102710.00;;;;5089113;28;20680;-76
2021/04/24 04:34:40;;;;;;;5.60;3.08;;;;;10.40;102704.00;;;;5080771;28;20213;-76
2021/04/24 04:37:07;;;;;;;7.57;3.28;;;;;10.40;102717.00;;;;5070270;28;20210;-76
2021/04/24 04:39:33;;;;;;;7.68;3.10;;;;;10.40;102711.00;;;;5081259;28;20211;-76
2021/04/24 04:42:00;;;;;;;6.15;2.95;;;;;10.40;102717.00;;;;5087925;28;20206;-76
2021/04/24 04:44:27;;;;;;;5.40;3.13;;;;;10.40;102717.00;;;;5090664;28;20202;-76
2021/04/24 04:46:55;;;;;;;5.53;3.08;;;;;10.40;102715.00;;;;5090290;28;20292;-76
2021/04/24 04:49:22;;;;;;;6.43;2.63;;;;;10.40;102710.00;;;;5089179;28;20221;-76
2021/04/24 04:51:48;;;;;;;7.65;2.85;;;;;10.50;102711.00;;;;5086837;28;20267;-76
2021/04/24 04:54:15;;;;;;;4.22;2.55;;;;;10.50;102717.00;;;;5069673;28;20199;-76
2021/04/24 04:56:42;;;;;;;6.90;3.05;;;;;10.50;102714.00;;;;5089806;28;20207;-76
2021/04/24 04:59:09;;;;;;;6.78;3.53;;;;;10.50;102707.00;;;;5081166;28;20206;-76
2021/04/24 05:01:35;;;;;;;6.28;2.60;;;;;10.60;102711.00;;;;5083914;28;20186;-76
2021/04/24 05:04:03;;;;;;;6.70;3.80;;;;;10.60;102708.00;;;;5087697;28;20233;-77
2021/04/24 05:06:30;;;;;;;5.85;3.25;;;;;10.60;102710.00;;;;5085865;28;20213;-76
2021/04/24 05:08:57;;;;;;;5.03;2.70;;;;;10.60;102710.00;;;;5082505;28;20226;-76
2021/04/24 05:11:23;;;;;;;5.38;2.95;;;;;10.60;102711.00;;;;5088165;28;20242;-76
2021/04/24 05:13:50;;;;;;;4.88;3.00;;;;;10.70;102710.00;;;;5085161;28;20217;-76
2021/04/24 05:16:17;;;;;;;8.18;4.15;;;;;10.70;102711.00;;;;5087606;28;20208;-76
2021/04/24 05:18:44;;;;;;;8.82;3.47;;;;;10.80;102709.00;;;;5088540;28;20233;-76
2021/04/24 05:21:12;;;;;;;8.13;3.55;;;;;10.80;102722.00;;;;5079639;28;20205;-76
2021/04/24 05:23:39;;;;;;;5.82;3.08;;;;;10.90;102724.00;;;;5081417;28;20197;-76
2021/04/24 05:26:05;;;;;;;7.75;3.00;;;;;10.90;102715.00;;;;5078210;28;20202;-76
2021/04/24 05:28:32;;;;;;;9.32;4.03;;;;;11.00;102717.00;;;;5086979;28;20233;-77
2021/04/24 05:30:59;;;;;;;8.52;3.42;;;;;11.00;102716.00;;;;5080162;28;20210;-76
2021/04/24 05:33:25;;;;;;;6.00;3.65;;;;;11.10;102719.00;;;;5072070;28;20187;-76
2021/04/24 05:35:53;;;;;;;8.50;3.80;;;;;11.10;102720.00;;;;5076361;28;20209;-76
2021/04/24 05:38:21;;;;;;;6.68;3.28;;;;;11.20;102713.00;;;;5088615;28;20195;-76
2021/04/24 05:40:47;;;;;;;7.45;3.65;;;;;11.20;102718.00;;;;5082411;28;20225;-76
2021/04/24 05:43:14;;;;;;;5.72;3.25;;;;;11.30;102727.00;;;;5069680;28;20195;-76
2021/04/24 05:45:41;;;;;;;6.53;3.80;;;;;11.30;102722.00;;;;5071422;28;20578;-76
2021/04/24 05:48:08;;;;;;;8.13;3.63;;;;;11.40;102732.00;;;;5083353;28;20201;-76
2021/04/24 05:50:35;;;;;;;8.52;3.00;;;;;11.40;102718.00;;;;5070350;28;20238;-76
2021/04/24 05:53:01;;;;;;;5.72;2.90;;;;;11.50;102725.00;;;;5073483;28;20904;-76
2021/04/24 05:55:29;;;;;;;6.00;3.05;;;;;11.50;102724.00;;;;5075766;28;20576;-76
2021/04/24 05:57:56;;;;;;;6.10;3.08;;;;;11.60;102730.00;;;;5073383;28;20195;-76
2021/04/24 06:00:23;;;;;;;12.50;3.67;;;;;11.60;102727.00;;;;5082329;28;20202;-76
2021/04/24 06:02:50;;;;;;;6.95;3.50;;;;;11.70;102724.00;;;;5076108;28;20249;-77
2021/04/24 06:05:17;;;;;;;7.43;3.58;;;;;11.70;102722.00;;;;5071642;28;20191;-76
2021/04/24 06:07:44;;;;;;;4.05;2.42;;;;;11.80;102735.00;;;;5068247;28;20195;-77
2021/04/24 06:10:14;;;;;;;7.05;3.45;;;;;11.80;102735.00;;;;5070305;28;20226;-75
2021/04/24 06:12:43;;;;;;;7.38;2.97;;;;;11.90;102735.00;;;;5056200;28;20191;-76
2021/04/24 06:15:11;;;;;;;5.30;3.13;;;;;11.90;102741.00;;;;5078879;28;20217;-76
2021/04/24 06:17:39;;;;;;;6.80;3.75;;;;;12.00;102745.00;;;;5086318;28;20194;-77
2021/04/24 06:20:08;;;;;;;6.50;3.00;;;;;12.10;102729.00;;;;5084274;28;20687;-77
2021/04/24 06:22:34;;;;;;;6.70;3.53;;;;;12.20;102737.00;;;;5086290;28;20201;-79
2021/04/24 06:25:01;;;;;;;6.25;3.30;;;;;12.30;102749.00;;;;5080521;28;20273;-80
2021/04/24 06:27:28;;;;;;;4.57;2.45;;;;;12.40;102752.00;;;;5081867;28;20281;-80
2021/04/24 06:29:56;;;;;;;4.90;2.65;;;;;12.50;102746.00;;;;5076682;28;20222;-80
2021/04/24 06:32:23;;;;;;;4.57;2.53;;;;;12.60;102742.00;;;;5075064;28;20198;-80
2021/04/24 06:34:49;;;;;;;6.13;3.15;;;;;12.70;102757.00;;;;5074974;28;20195;-80
2021/04/24 06:37:16;;;;;;;5.00;3.38;;;;;12.70;102759.00;;;;5082384;28;20201;-81
2021/04/24 06:39:43;;;;;;;3.20;2.25;;;;;12.80;102753.00;;;;5092871;28;20699;-82
2021/04/24 06:42:10;;;;;;;4.65;2.72;;;;;12.90;102750.00;;;;5094396;28;20195;-82
2021/04/24 06:44:36;;;;;;;6.03;2.63;;;;;13.00;102760.00;;;;5092460;28;20220;-82
2021/04/24 06:47:04;;;;;;;3.88;2.38;;;;;13.10;102753.00;;;;5093936;28;20218;-79
2021/04/24 06:49:31;;;;;;;4.75;2.30;;;;;13.10;102751.00;;;;5090494;28;20219;-78
2021/04/24 06:51:57;;;;;;;5.40;2.58;;;;;13.20;102746.00;;;;5092550;28;20221;-80
2021/04/24 06:54:24;;;;;;;5.13;2.25;;;;;13.30;102753.00;;;;5091144;28;20201;-80
2021/04/24 06:56:51;;;;;;;4.25;2.05;;;;;13.40;102744.00;;;;5074251;28;20186;-77
2021/04/24 06:59:17;;;;;;;5.53;2.42;;;;;13.40;102739.00;;;;5075832;28;20201;-77
2021/04/24 07:01:44;;;;;;;4.85;2.60;;;;;13.50;102739.00;;;;5080084;28;20195;-77
2021/04/24 07:04:12;;;;;;;4.30;2.45;;;;;13.60;102749.00;;;;5094398;28;20636;-77
2021/04/24 07:06:38;;;;;;;4.70;2.92;;;;;13.70;102753.00;;;;5094947;28;20209;-77
2021/04/24 07:09:06;;;;;;;5.80;3.03;;;;;13.70;102763.00;;;;5093439;28;20271;-78
2021/04/24 07:11:33;;;;;;;3.38;2.40;;;;;13.80;102754.00;;;;5094159;28;20202;-78
2021/04/24 07:14:00;;;;;;;4.75;2.17;;;;;13.80;102745.00;;;;5094048;28;20198;-77
2021/04/24 07:16:26;;;;;;;5.40;3.10;;;;;13.90;102753.00;;;;5094210;28;20198;-77
2021/04/24 07:18:53;;;;;;;4.38;2.55;;;;;13.90;102754.00;;;;5094363;28;20571;-78
2021/04/24 07:21:21;;;;;;;4.15;2.42;;;;;14.00;102752.00;;;;5093303;28;20217;-77
2021/04/24 07:23:47;;;;;;;4.10;2.20;;;;;14.10;102750.00;;;;5093943;28;20202;-78
2021/04/24 07:26:15;;;;;;;4.32;2.13;;;;;14.10;102759.00;;;;5094148;28;20206;-77
2021/04/24 07:28:41;;;;;;;4.43;2.10;;;;;14.20;102755.00;;;;5093170;28;20236;-77
2021/04/24 07:31:09;;;;;;;3.33;2.33;;;;;14.30;102755.00;;;;5091806;28;20202;-77
2021/04/24 07:33:36;;;;;;;3.97;2.42;;;;;14.30;102748.00;;;;5089787;28;20199;-78
2021/04/24 07:36:04;;;;;;;4.60;2.15;;;;;14.40;102745.00;;;;5089717;28;20194;-77
2021/04/24 07:38:31;;;;;;;5.28;2.30;;;;;14.40;102749.00;;;;5090753;28;20210;-77
2021/04/24 07:40:58;;;;;;;2.60;1.48;;;;;14.50;102753.00;;;;5091599;28;20530;-77
2021/04/24 07:43:25;;;;;;;3.47;1.90;;;;;14.60;102742.00;;;;5090412;28;20199;-76
2021/04/24 07:45:51;;;;;;;2.63;2.25;;;;;14.70;102741.00;;;;5091513;28;20209;-76
2021/04/24 07:48:18;;;;;;;3.40;2.17;;;;;14.80;102745.00;;;;5090478;28;20884;-76
2021/04/24 07:50:46;;;;;;;3.40;2.30;;;;;14.80;102747.00;;;;5090722;28;20226;-77
2021/04/24 07:53:13;;;;;;;2.80;1.65;;;;;14.90;102750.00;;;;5090167;28;20202;-78
2021/04/24 07:55:40;;;;;;;3.42;2.13;;;;;15.00;102742.00;;;;5083430;28;20201;-78
2021/04/24 07:58:07;;;;;;;2.63;1.60;;;;;15.00;102744.00;;;;5090815;28;20199;-78
2021/04/24 08:00:35;;;;;;;4.00;2.08;;;;;15.10;102742.00;;;;5090637;28;20560;-78
2021/04/24 08:03:02;;;;;;;2.97;2.00;;;;;15.20;102752.00;;;;5090041;28;20229;-78
2021/04/24 08:05:29;;;;;;;3.70;2.30;;;;;15.30;102742.00;;;;5091486;28;20206;-78
2021/04/24 08:07:56;;;;;;;3.65;2.05;;;;;15.40;102737.00;;;;5090291;28;20202;-78
2021/04/24 08:10:23;;;;;;;1.83;1.45;;;;;15.50;102734.00;;;;5091407;28;20221;-78
2021/04/24 08:12:51;;;;;;;2.90;1.80;;;;;15.60;102741.00;;;;5090920;28;20186;-78
2021/04/24 08:15:17;;;;;;;3.05;1.95;;;;;15.70;102736.00;;;;5090620;28;20206;-78
2021/04/24 08:17:44;;;;;;;3.78;2.00;;;;;15.70;102741.00;;;;5091317;28;20198;-78
2021/04/24 08:20:14;;;;;;;3.10;2.03;;;;;15.80;102732.00;;;;5083200;28;20195;-78
2021/04/24 08:22:41;;;;;;;3.05;1.92;;;;;15.80;102732.00;;;;5084025;28;20201;-78
2021/04/24 08:25:09;;;;;;;1.80;1.40;;;;;15.90;102728.00;;;;5090514;28;20213;-78
2021/04/24 08:27:36;;;;;;;2.35;1.35;;;;;15.90;102731.00;;;;5090632;28;20725;-78
2021/04/24 08:30:06;;;;;;;1.77;1.17;;;;;16.00;102736.00;;;;5090308;28;20233;-78
2021/04/24 08:32:33;;;;;;;2.75;1.30;;;;;16.10;102730.00;;;;5090750;28;20186;-77
2021/04/24 08:35:00;;;;;;;2.13;1.75;;;;;16.20;102739.00;;;;5088598;28;20210;-78
2021/04/24 08:37:27;;;;;;;3.70;1.85;;;;;16.30;102738.00;;;;5090277;28;20570;-78
2021/04/24 08:39:53;;;;;;;2.17;1.77;;;;;16.30;102739.00;;;;5090108;28;20656;-78
2021/04/24 08:42:20;;;;;;;2.90;1.35;;;;;16.50;102743.00;;;;5089744;28;20202;-78
2021/04/24 08:44:50;;;;;;;3.00;1.25;;;;;16.60;102743.00;;;;5090106;28;20625;-78
2021/04/24 08:47:20;;;;;;;2.90;1.50;;;;;16.70;102744.00;;;;5089685;28;20563;-78
2021/04/24 08:49:47;;;;;;;3.95;1.70;;;;;16.80;102743.00;;;;5090172;28;20225;-78
2021/04/24 08:52:14;;;;;;;4.55;1.58;;;;;16.90;102737.00;;;;5089376;28;20233;-78
2021/04/24 08:54:41;;;;;;;3.65;1.58;;;;;17.10;102740.00;;;;5090430;28;20207;-78
2021/04/24 08:57:10;;;;;;;1.85;1.23;;;;;17.10;102736.00;;;;5089489;28;20581;-78
2021/04/24 08:59:37;;;;;;;1.98;1.20;;;;;17.30;102732.00;;;;5090397;28;20203;-78
2021/04/24 09:02:04;;;;;;;4.32;1.48;;;;;17.30;102727.00;;;;5089720;28;20202;-80
2021/04/24 09:04:31;;;;;;;2.13;1.40;;;;;17.30;102733.00;;;;5089671;28;20214;-78
2021/04/24 09:06:58;;;;;;;2.65;1.40;;;;;17.40;102737.00;;;;5086219;28;20214;-78
2021/04/24 09:09:27;;;;;;;1.90;1.67;;;;;17.50;102732.00;;;;5085061;28;20221;-79
2021/04/24 09:11:57;;;;;;;1.60;1.27;;;;;17.50;102733.00;;;;5088775;28;20194;-79
2021/04/24 09:14:26;;;;;;;1.95;1.52;;;;;17.50;102739.00;;;;5088984;28;20205;-79
2021/04/24 09:16:53;;;;;;;1.80;1.02;;;;;17.60;102743.00;;;;5088180;28;20190;-80
2021/04/24 09:19:28;;;;;;;3.28;1.40;;;;;17.50;102747.00;;;;5088518;28;20206;-79
2021/04/24 09:22:16;;;;;;;4.10;1.58;;;;;17.50;102736.00;;;;5068468;28;20724;-78
2021/04/24 09:24:44;;;;;;;2.03;1.25;;;;;17.60;102740.00;;;;5069718;28;20199;-78
2021/04/24 09:27:11;;;;;;;1.83;0.95;;;;;17.60;102742.00;;;;5075633;28;20205;-78
2021/04/24 09:29:38;;;;;;;3.67;1.58;;;;;17.60;102739.00;;;;5089178;28;21120;-78
2021/04/24 09:32:15;;;;;;;1.63;1.23;;;;;17.50;102745.00;;;;5089197;28;20195;-78
2021/04/24 09:34:45;;;;;;;1.77;1.00;;;;;17.70;102740.00;;;;5089291;28;20247;-78
2021/04/24 09:37:17;;;;;;;2.17;1.30;;;;;17.70;102724.00;;;;5088395;28;20214;-78
2021/04/24 09:39:45;;;;;;;1.83;1.38;;;;;17.80;102727.00;;;;5089521;28;20206;-78
2021/04/24 09:42:30;;;;;;;1.90;1.27;;;;;17.80;102711.00;;;;5089101;28;20213;-78
2021/04/24 09:44:57;;;;;;;2.55;1.42;;;;;18.00;102715.00;;;;5089154;28;20657;-78
2021/04/24 09:47:39;;;;;;;3.03;1.10;;;;;18.00;102723.00;;;;5089149;28;20202;-78
2021/04/24 09:50:11;;;;;;;1.50;1.40;;;;;18.20;102717.00;;;;5087785;28;20738;-78
2021/04/24 09:52:39;;;;;;;2.00;1.33;;;;;18.30;102715.00;;;;5088882;28;20237;-78
2021/04/24 09:55:07;;;;;;;2.67;1.55;;;;;18.40;102714.00;;;;5087734;28;20213;-79
2021/04/24 09:57:34;;;;;;;3.42;2.10;;;;;18.50;102713.00;;;;5088951;28;20613;-79
2021/04/24 10:00:04;;;;;;;1.83;1.60;;;;;18.50;102715.00;;;;5088108;28;20203;-78
2021/04/24 10:02:32;;;;;;;5.07;1.60;;;;;18.60;102709.00;;;;5088955;28;20213;-78
2021/04/24 10:05:10;;;;;;;2.95;1.48;;;;;18.70;102709.00;;;;5088126;28;20218;-79
2021/04/24 10:07:38;;;;;;;1.48;1.10;;;;;18.80;102708.00;;;;5089024;28;20650;-78
2021/04/24 10:10:08;;;;;;;2.47;1.60;;;;;18.90;102714.00;;;;5088172;28;20256;-78
2021/04/24 10:12:35;;;;;;;3.03;1.70;;;;;19.00;102697.00;;;;5088990;28;20205;-78
2021/04/24 10:15:03;;;;;;;2.85;1.73;;;;;19.00;102702.00;;;;5088728;28;20210;-79
2021/04/24 10:17:30;;;;;;;2.05;1.40;;;;;19.10;102704.00;;;;5089020;28;20267;-78
2021/04/24 10:19:57;;;;;;;1.95;1.63;;;;;19.20;102701.00;;;;5088157;28;20189;-78
2021/04/24 10:22:25;;;;;;;3.45;1.50;;;;;19.30;102696.00;;;;5088346;28;20202;-78
2021/04/24 10:24:53;;;;;;;3.13;1.52;;;;;19.40;102701.00;;;;5088731;28;20205;-78
2021/04/24 10:27:22;;;;;;;2.00;1.50;;;;;19.40;102699.00;;;;5088386;28;20202;-78
2021/04/24 10:29:50;;;;;;;3.17;1.40;;;;;19.50;102693.00;;;;5086597;28;20229;-78
2021/04/24 10:32:17;;;;;;;3.15;1.75;;;;;19.60;102700.00;;;;5085012;28;20229;-79
2021/04/24 10:34:45;;;;;;;3.55;1.48;;;;;19.70;102699.00;;;;5087266;28;20225;-78
2021/04/24 10:37:12;;;;;;;5.88;1.65;;;;;19.70;102695.00;;;;5087736;28;20209;-77
2021/04/24 10:39:40;;;;;;;2.08;1.27;;;;;19.80;102679.00;;;;5088364;28;20210;-77
2021/04/24 10:42:19;;;;;;;2.38;1.48;;;;;19.80;102684.00;;;;5087735;28;20208;-77
2021/04/24 10:44:57;;;;;;;3.45;1.58;;;;;19.80;102675.00;;;;5086892;28;20226;-78
2021/04/24 10:47:52;;;;;;;2.38;1.60;;;;;19.80;102689.00;;;;5088141;28;20190;-78
2021/04/24 10:50:21;;;;;;;2.38;1.52;;;;;19.90;102685.00;;;;5086634;28;20366;-77
2021/04/24 10:52:50;;;;;;;2.40;1.20;;;;;20.00;102685.00;;;;5087207;28;20241;-77
2021/04/24 10:55:25;;;;;;;4.43;1.73;;;;;20.10;102676.00;;;;5079463;28;20344;-78
2021/04/24 10:57:56;;;;;;;2.22;1.48;;;;;20.20;102673.00;;;;5075000;28;20198;-79
2021/04/24 11:00:47;;;;;;;1.90;1.70;;;;;20.30;102674.00;;;;5088178;28;20265;-78
2021/04/24 11:03:42;;;;;;;2.45;1.55;;;;;20.40;102673.00;;;;5087219;28;20222;-78
2021/04/24 11:06:10;;;;;;;2.72;1.73;;;;;20.60;102665.00;;;;5069551;28;20260;-77
2021/04/24 11:08:38;;;;;;;2.55;1.63;;;;;20.70;102664.00;;;;5077255;28;20195;-76
2021/04/24 11:11:07;;;;;;;3.00;1.80;;;;;20.70;102671.00;;;;5072874;28;20207;-77
2021/04/24 11:13:38;;;;;;;3.30;1.83;;;;;20.70;102666.00;;;;5073239;28;20206;-76
2021/04/24 11:16:07;;;;;;;2.45;1.75;;;;;20.80;102666.00;;;;5091823;28;20210;-75
2021/04/24 11:18:36;;;;;;;3.47;1.63;;;;;20.80;102667.00;;;;5093068;28;20198;-76
2021/04/24 11:21:05;;;;;;;2.67;1.90;;;;;20.90;102662.00;;;;5080460;28;20294;-76
2021/04/24 11:23:43;;;;;;;4.63;1.90;;;;;20.80;102668.00;;;;5092071;28;20202;-76
2021/04/24 11:26:11;;;;;;;3.75;2.28;;;;;20.90;102651.00;;;;5078122;28;20553;-76
2021/04/24 11:28:58;;;;;;;3.92;1.80;;;;;20.90;102648.00;;;;5084334;28;20217;-76
2021/04/24 11:31:58;;;;;;;3.47;1.80;;;;;20.90;102661.00;;;;5091432;28;20215;-76
2021/04/24 11:34:46;;;;;;;5.38;2.60;;;;;21.00;102655.00;;;;5091778;28;20202;-76
2021/04/24 11:37:27;;;;;;;5.13;2.13;;;;;21.00;102653.00;;;;5090548;28;20202;-76
2021/04/24 11:40:29;;;;;;;5.30;1.98;;;;;21.00;102647.00;;;;5071289;28;20579;-76
2021/04/24 11:43:02;;;;;;;5.03;2.30;;;;;21.10;102647.00;;;;5082532;28;20198;-76
2021/04/24 11:45:52;;;;;;;3.38;2.00;;;;;21.10;102646.00;;;;5090009;28;20290;-76
2021/04/24 11:48:58;;;;;;;3.83;2.58;;;;;21.10;102647.00;;;;5088457;28;20210;-76
2021/04/24 11:51:47;;;;;;;3.85;2.38;;;;;21.20;102654.00;;;;5069718;28;20581;-76
2021/04/24 11:54:21;;;;;;;2.67;1.73;;;;;21.20;102661.00;;;;5068313;28;20209;-76
2021/04/24 11:56:49;;;;;;;5.65;2.78;;;;;21.20;102655.00;;;;5069260;28;20699;-76
2021/04/24 11:59:23;;;;;;;2.70;2.10;;;;;21.20;102660.00;;;;5068986;28;20206;-75
2021/04/24 12:01:52;;;;;;;4.10;2.20;;;;;21.20;102655.00;;;;5089620;28;20655;-75
2021/04/24 12:04:27;;;;;;;3.15;2.05;;;;;21.10;102646.00;;;;5088119;28;20218;-76
2021/04/24 12:07:06;;;;;;;4.07;2.20;;;;;21.10;102649.00;;;;5081527;28;20190;-75
2021/04/24 12:09:46;;;;;;;4.00;2.05;;;;;21.10;102650.00;;;;5073879;28;20260;-75
2021/04/24 12:12:14;;;;;;;4.03;2.17;;;;;21.10;102658.00;;;;5086657;28;20190;-75
2021/04/24 12:14:41;;;;;;;3.78;2.85;;;;;21.10;102656.00;;;;5071912;28;20669;-75
2021/04/24 12:17:10;;;;;;;4.50;2.30;;;;;21.10;102645.00;;;;5076743;28;20255;-75